Scroll down
FLIGHT INFORMATION
Canadian Airlines

CDN748

At Arrival Gate

TNCM
 CYYZ
DATE: 2018-12-25
GATE: A2
GATE DEPARTURE: 20:31
TAKEOFF: 20:46
DATE: 2018-12-26
GATE:  -
LANDING: 01:03
GATE ARRIVAL: 01:11
FLIGHT DATA
Crew: 
Speed: 
952 kph
Altitude: 
38,044 ft
Stage Length: 
3,243.7 km
Block Time: 
4.6 hrs
Flight Time: 
4.3 hrs
Fuel Used: 
40,779 kg
Cleared Route: JUICE LARPP PASIC STT PALCO CHAKA SJU JAAWS UTAHS ELMUC MYSTR LERUG DUNED CERDA LETON ILIDO JAINS OLDEY ILM RIC56 FAK LDN WOZEE
TRACK DATA
50,000 ft 1,000 kts
AIRCRAFT INFO AND CUMULATIVE STATS
Aircraft Type: 
B744
Registration: 
SELCAL: 
ABEQ
MSN/LN: 
24883 / 823
Operator: 
Total Flights: 
4
Total Block Time: 
24.6 hrs
Total Flight Time: 
23.6 hrs
Total Fuel Used: 
236,442 kg
DATALINK LOG | Newest first | Current as of: 2022-09-29 23:29:35
LABEL SEQUENCE CONTENT Dn/Up
QD115701:11 34.3▼ Dn
QC032401:03▼ Dn
5U2426TAF CYYZ 242338Z 2500/2606 28012KT P6SM BKN030 TEMPO 2500/2518 BKN020 BECMG 2501/2503 30008KT FM251800 19005KT P6SM BKN020 RMK NXT FCST BY 250300Z▲ Up
5S3640CYYZ▼ Dn
2U2426CYYZ 250200Z 31006KT 15SM SCT022 BKN050 M00/M05 A3016 RMK SC3SC3 SLP221▲ Up
2S3636CYYZ▼ Dn
QB434920:43▼ Dn
QA291820:29 124.7▼ Dn
5U1342TAF CYYZ 242338Z 2500/2606 28012KT P6SM BKN030 TEMPO 2500/2518 BKN020 BECMG 2501/2503 30008KT FM251800 19005KT P6SM BKN020 RMK NXT FCST BY 250300Z▲ Up
5S2850CYYZ▼ Dn
2U1342TNCM 250100Z 07008KT 040V100 9999 FEW020 25/19 Q1017 A3004 NOSIG▲ Up
2S2845TNCM▼ Dn


AIRCRAFT HISTORY
FLIGHT DATE FLIGHT NO. ORIGIN DESTINATION CLEARED ROUTE BLOCK TIME FLIGHT TIME FUEL USED PILOT
2019-08-02CDN801CYYZ VHHH CYYZ TONNY YYB 5080N 5581N 6083N 6585N 7088N YRB 80N10 82N30 LAHEY LETUN LOMRI IDIMA OGTIL GIKSI TEMGA ABDAG GANPA RUSED ARTUN NAROV DEBED PITIL OLDEP OKUNI RELSO RIKLI UNARU IDRAN URIPA BALOP TINEG TEBRI GABAL NEKLU BIGMA SULOK BURIM PICAS ZOBUL POLHO UKBAD TMR TZH LARAD UBTAB SJW OLRAP WXI AKOMA IDULA ZHO OBLIK ESDOS HOK LKO DAPRO AKUBA LUMKO PAVTU LIG NIVEM BEMAG NNX WYN SANIP NOMAR UBLIM NLG ZUH SIERA VHHH14.8 hrs14.6 hrs329,346 lbBig Swede
2018-12-25CDN748TNCM CYYZ JUICE LARPP PASIC STT PALCO CHAKA SJU JAAWS UTAHS ELMUC MYSTR LERUG DUNED CERDA LETON ILIDO JAINS OLDEY ILM RIC56 FAK LDN WOZEE4.6 hrs4.3 hrs89,902 lbJason Brown
2018-12-24CDN745CYUL TNCM WARDS MHT BOS ACK LARGE BOVIC BDA GECAL TALSU NUBUS KEEKA TRNKY PJM4.1 hrs3.8 hrs79,254 lbJason Brown
2018-07-02CDN901CYYZ CYUL 1.2 hrs0.9 hrs22,763 lbJason Brown